createdAt,value
2023-05-15T00:02:22.950Z,101006.69
2023-05-15T00:06:28.095Z,101004.53
2023-05-15T00:10:30.858Z,101012.16
2023-05-15T00:14:33.559Z,101001.75
2023-05-15T00:18:36.560Z,100999.28
2023-05-15T00:22:43.204Z,100993.44
2023-05-15T00:26:45.969Z,100989.31
2023-05-15T00:30:48.749Z,100982.16
2023-05-15T00:34:51.485Z,100966.00
2023-05-15T00:38:55.703Z,100977.97
2023-05-15T00:43:01.601Z,100974.66
2023-05-15T00:47:05.443Z,100971.09
2023-05-15T00:51:08.529Z,100959.00
2023-05-15T00:55:12.732Z,100968.84
2023-05-15T00:59:17.110Z,100964.75
2023-05-15T01:03:20.029Z,100959.22
2023-05-15T01:07:22.899Z,100963.53
2023-05-15T01:11:35.785Z,100954.47
2023-05-15T01:15:39.703Z,100954.97
2023-05-15T01:19:43.504Z,100963.16
2023-05-15T01:23:58.659Z,100983.66
2023-05-15T01:28:06.687Z,100972.69
2023-05-15T01:32:13.970Z,100978.06
2023-05-15T01:36:23.272Z,100962.59
2023-05-15T01:40:29.284Z,100967.69
2023-05-15T01:44:37.041Z,100980.47
2023-05-15T01:48:44.547Z,100971.56
2023-05-15T01:52:51.632Z,100961.03
2023-05-15T01:56:56.774Z,100956.91
2023-05-15T02:01:02.344Z,100959.66
2023-05-15T02:05:06.391Z,100954.53
2023-05-15T02:09:10.872Z,100966.84
2023-05-15T02:13:14.618Z,100960.38
2023-05-15T02:17:18.983Z,100965.53
2023-05-15T02:21:21.921Z,100967.34
2023-05-15T02:25:35.746Z,100960.16
2023-05-15T02:29:48.685Z,100957.44
2023-05-15T02:34:00.319Z,100958.25
2023-05-15T02:38:09.502Z,100964.88
2023-05-15T02:42:13.804Z,100948.63
2023-05-15T02:46:17.695Z,100955.94
2023-05-15T02:50:22.274Z,100961.41
2023-05-15T02:54:25.320Z,100954.53
2023-05-15T02:58:28.103Z,100953.47
2023-05-15T03:02:30.845Z,100957.53
2023-05-15T03:06:35.001Z,100963.78
2023-05-15T03:10:37.760Z,100957.00
2023-05-15T03:14:40.467Z,100958.97
2023-05-15T03:18:43.247Z,100956.88
2023-05-15T03:22:47.466Z,100954.16
2023-05-15T03:26:50.240Z,100956.97
2023-05-15T03:30:53.345Z,100955.53
2023-05-15T03:34:56.333Z,100951.25
2023-05-15T03:39:00.530Z,100949.25
2023-05-15T03:43:03.366Z,100947.31
2023-05-15T03:47:06.456Z,100942.94
2023-05-15T03:51:09.297Z,100947.47
2023-05-15T03:55:13.390Z,100944.28
2023-05-15T03:59:16.521Z,100940.72
2023-05-15T04:03:19.999Z,100942.78
2023-05-15T04:07:22.753Z,100949.41
2023-05-15T04:11:28.509Z,100945.25
2023-05-15T04:15:31.515Z,100944.16
2023-05-15T04:19:34.279Z,100944.00
2023-05-15T04:23:36.992Z,100943.97
2023-05-15T04:27:41.452Z,100945.94
2023-05-15T04:31:44.689Z,100941.75
2023-05-15T04:35:48.121Z,100949.56
2023-05-15T04:39:50.858Z,100950.72
2023-05-15T04:43:55.063Z,100951.69
2023-05-15T04:47:57.857Z,100950.88
2023-05-15T04:52:01.518Z,100952.75
2023-05-15T04:56:04.397Z,100949.41
2023-05-15T05:00:12.398Z,100957.34
2023-05-15T05:04:19.347Z,100970.63
2023-05-15T05:08:22.136Z,100959.16
2023-05-15T05:12:26.011Z,100952.72
2023-05-15T05:16:31.987Z,100954.88
2023-05-15T05:20:34.935Z,100963.25
2023-05-15T05:24:38.055Z,100961.81
2023-05-15T05:28:40.865Z,100969.75
2023-05-15T05:32:44.967Z,100971.78
2023-05-15T05:36:47.730Z,100972.63
2023-05-15T05:40:51.050Z,100959.34
2023-05-15T05:44:53.760Z,100964.78
2023-05-15T05:48:58.092Z,100962.88
2023-05-15T05:53:01.005Z,100959.41
2023-05-15T05:57:03.879Z,100960.16
2023-05-15T06:01:07.026Z,100970.41
2023-05-15T06:05:11.524Z,100973.97
2023-05-15T06:09:14.264Z,100972.03
2023-05-15T06:13:17.449Z,100976.88
2023-05-15T06:17:20.797Z,100970.16
2023-05-15T06:21:24.894Z,100967.75
2023-05-15T06:25:27.658Z,100979.34
2023-05-15T06:29:31.314Z,100985.78
2023-05-15T06:33:34.042Z,100986.03
2023-05-15T06:37:38.609Z,101007.00
2023-05-15T06:41:41.282Z,101013.56
2023-05-15T06:45:48.305Z,101002.19
2023-05-15T06:49:51.015Z,101006.72
2023-05-15T06:53:55.129Z,101001.13
2023-05-15T06:57:58.097Z,101009.06
2023-05-15T07:02:01.343Z,101004.81
2023-05-15T07:06:05.396Z,101001.50
2023-05-15T07:10:10.833Z,100998.41
2023-05-15T07:14:13.873Z,100998.78
2023-05-15T07:18:17.954Z,101007.06
2023-05-15T07:22:20.837Z,101005.88
2023-05-15T07:26:34.348Z,101013.34
2023-05-15T07:30:39.330Z,101013.91
2023-05-15T07:34:42.857Z,101008.22
2023-05-15T07:38:45.648Z,101008.09
2023-05-15T07:42:49.750Z,101001.66
2023-05-15T07:46:52.520Z,101001.06
2023-05-15T07:50:57.150Z,101002.31
2023-05-15T07:55:00.716Z,101004.50
2023-05-15T07:59:04.847Z,101001.00
2023-05-15T08:03:07.931Z,101000.56
2023-05-15T08:07:11.229Z,101013.19
2023-05-15T08:11:14.332Z,101005.91
2023-05-15T08:15:19.493Z,100990.84
2023-05-15T08:19:24.041Z,100987.88
2023-05-15T08:23:27.605Z,100986.13
2023-05-15T08:27:30.914Z,100981.75
2023-05-15T08:31:36.511Z,100977.47
2023-05-15T08:35:39.723Z,100972.03
2023-05-15T08:39:42.594Z,100969.25
2023-05-15T08:43:46.120Z,100975.53
2023-05-15T08:47:50.756Z,100966.34
2023-05-15T08:51:54.632Z,100966.88
2023-05-15T08:55:58.990Z,100962.13
2023-05-15T09:00:02.733Z,100960.53
2023-05-15T09:04:07.570Z,100960.03
2023-05-15T09:08:11.257Z,100963.00
2023-05-15T09:12:16.454Z,100962.50
2023-05-15T09:16:21.113Z,100958.75
2023-05-15T09:20:30.672Z,100955.97
2023-05-15T09:24:36.582Z,100956.16
2023-05-15T09:28:39.503Z,100953.41
2023-05-15T09:32:42.664Z,100953.53
2023-05-15T09:36:47.621Z,100948.47
2023-05-15T09:40:50.527Z,100946.34
2023-05-15T09:44:53.534Z,100944.13
2023-05-15T09:48:56.733Z,100951.56
2023-05-15T09:53:01.979Z,100959.19
2023-05-15T09:57:09.509Z,100958.81
2023-05-15T10:01:13.251Z,100956.38
2023-05-15T10:05:17.582Z,100944.28
2023-05-15T10:09:24.873Z,100954.63
2023-05-15T10:13:28.879Z,100937.47
2023-05-15T10:17:35.433Z,100947.44
2023-05-15T10:21:39.589Z,100940.44
2023-05-15T10:25:50.372Z,100943.34
2023-05-15T10:29:54.079Z,100938.41
2023-05-15T10:33:57.819Z,100930.56
2023-05-15T10:38:02.089Z,100926.03
2023-05-15T10:42:07.767Z,100916.09
2023-05-15T10:46:12.583Z,100919.50
2023-05-15T10:50:17.007Z,100910.22
2023-05-15T10:54:20.426Z,100908.97
2023-05-15T10:58:25.514Z,100915.47
2023-05-15T11:02:31.419Z,100908.91
2023-05-15T11:06:34.984Z,100908.72
2023-05-15T11:10:38.915Z,100907.03
2023-05-15T11:14:44.394Z,100902.03
2023-05-15T11:18:47.313Z,100906.13
2023-05-15T11:22:59.648Z,100898.78
2023-05-15T11:27:05.620Z,100896.66
2023-05-15T11:31:10.206Z,100892.59
2023-05-15T11:35:13.843Z,100888.16
2023-05-15T11:39:18.060Z,100895.88
2023-05-15T11:43:22.656Z,100874.28
2023-05-15T11:47:30.175Z,100875.28
2023-05-15T11:51:35.451Z,100875.78
2023-05-15T11:55:40.229Z,100880.66
2023-05-15T11:59:45.460Z,100872.97
2023-05-15T12:03:50.385Z,100862.66
2023-05-15T12:07:53.424Z,100866.59
2023-05-15T12:11:57.025Z,100861.56
2023-05-15T12:16:00.536Z,100860.28
2023-05-15T12:20:06.885Z,100864.91
2023-05-15T12:24:12.638Z,100870.66
2023-05-15T12:28:16.085Z,100868.00
2023-05-15T12:32:19.318Z,100860.56
2023-05-15T12:36:23.760Z,100858.91
2023-05-15T12:40:26.968Z,100863.66
2023-05-15T12:44:30.189Z,100872.22
2023-05-15T12:48:33.569Z,100863.56
2023-05-15T12:52:37.730Z,100860.31
2023-05-15T12:56:41.687Z,100868.97
2023-05-15T13:00:46.045Z,100867.31
2023-05-15T13:04:48.900Z,100863.66
2023-05-15T13:08:55.777Z,100856.00
2023-05-15T13:12:59.151Z,100862.94
2023-05-15T13:17:03.579Z,100863.91
2023-05-15T13:21:06.535Z,100871.47
2023-05-15T13:25:11.208Z,100861.91
2023-05-15T13:29:13.999Z,100871.69
2023-05-15T13:33:16.926Z,100868.97
2023-05-15T13:37:19.742Z,100864.28
2023-05-15T13:41:23.928Z,100860.28
2023-05-15T13:45:26.665Z,100865.59
2023-05-15T13:49:30.122Z,100865.16
2023-05-15T13:53:32.898Z,100848.28
2023-05-15T13:57:37.264Z,100860.41
2023-05-15T14:01:39.965Z,100851.31
2023-05-15T14:05:42.789Z,100845.28
2023-05-15T14:09:46.089Z,100852.50
2023-05-15T14:13:50.148Z,100866.28
2023-05-15T14:17:55.437Z,100855.97
2023-05-15T14:21:58.760Z,100860.16
2023-05-15T14:26:01.491Z,100865.47
2023-05-15T14:30:06.851Z,100861.53
2023-05-15T14:34:09.967Z,100857.75
2023-05-15T14:38:12.871Z,100858.81
2023-05-15T14:42:17.096Z,100856.75
2023-05-15T14:46:21.255Z,100872.72
2023-05-15T14:50:24.191Z,100869.44
2023-05-15T14:54:27.059Z,100873.13
2023-05-15T14:58:30.659Z,100865.38
2023-05-15T15:02:35.002Z,100853.69
2023-05-15T15:06:37.808Z,100866.28
2023-05-15T15:10:43.347Z,100864.19
2023-05-15T15:14:46.123Z,100865.31
2023-05-15T15:18:50.498Z,100880.00
2023-05-15T15:22:53.925Z,100877.59
2023-05-15T15:26:56.767Z,100877.47
2023-05-15T15:30:59.527Z,100890.44
2023-05-15T15:35:04.405Z,100902.00
2023-05-15T15:39:07.141Z,100890.19
2023-05-15T15:43:10.017Z,100894.66
2023-05-15T15:47:12.786Z,100908.53
2023-05-15T15:51:16.947Z,100909.41
2023-05-15T15:55:19.901Z,100908.34
2023-05-15T15:59:22.735Z,100908.06
2023-05-15T16:03:25.534Z,100912.16
2023-05-15T16:07:29.713Z,100914.66
2023-05-15T16:11:32.468Z,100920.00
2023-05-15T16:15:35.184Z,100921.03
2023-05-15T16:19:37.939Z,100920.53
2023-05-15T16:23:42.240Z,100915.84
2023-05-15T16:27:44.935Z,100916.63
2023-05-15T16:31:47.828Z,100939.94
2023-05-15T16:35:50.903Z,100935.28
2023-05-15T16:39:55.078Z,100939.13
2023-05-15T16:43:57.820Z,100937.06
2023-05-15T16:48:00.581Z,100940.13
2023-05-15T16:52:03.336Z,100937.88
2023-05-15T16:56:08.306Z,100947.91
2023-05-15T17:00:12.944Z,100960.91
2023-05-15T17:04:15.649Z,100954.63
2023-05-15T17:08:18.385Z,100952.72
2023-05-15T17:12:22.590Z,100954.91
2023-05-15T17:16:25.325Z,100957.13
2023-05-15T17:20:28.649Z,100969.78
2023-05-15T17:24:46.387Z,100966.78
2023-05-15T17:28:53.897Z,100971.47
2023-05-15T17:32:56.829Z,100970.66
2023-05-15T17:36:59.665Z,100973.94
2023-05-15T17:41:02.596Z,100984.66
2023-05-15T17:45:07.887Z,100983.81
2023-05-15T17:49:11.752Z,100984.63
2023-05-15T17:53:15.185Z,100996.44
2023-05-15T17:57:17.948Z,101000.56
2023-05-15T18:01:22.132Z,101010.97
2023-05-15T18:05:25.122Z,101007.34
2023-05-15T18:09:28.101Z,101008.09
2023-05-15T18:13:30.931Z,101021.16
2023-05-15T18:17:35.017Z,101024.97
2023-05-15T18:21:38.132Z,101017.75
2023-05-15T18:25:41.071Z,101031.97
2023-05-15T18:29:45.533Z,101032.50
2023-05-15T18:33:49.804Z,101030.09
2023-05-15T18:37:52.513Z,101036.63
2023-05-15T18:41:55.564Z,101039.56
2023-05-15T18:45:58.247Z,101048.44
2023-05-15T18:50:02.609Z,101050.81
2023-05-15T18:54:05.365Z,101045.59
2023-05-15T18:58:08.639Z,101066.28
2023-05-15T19:02:11.578Z,101052.00
2023-05-15T19:06:19.715Z,101066.44
2023-05-15T19:10:22.677Z,101072.38
2023-05-15T19:14:25.591Z,101079.66
2023-05-15T19:18:28.727Z,101090.31
2023-05-15T19:22:34.177Z,101102.56
2023-05-15T19:26:37.377Z,101094.47
2023-05-15T19:30:40.108Z,101094.53
2023-05-15T19:34:43.034Z,101096.91
2023-05-15T19:38:47.883Z,101110.06
2023-05-15T19:42:53.374Z,101108.78
2023-05-15T19:46:56.142Z,101115.03
2023-05-15T19:50:58.993Z,101114.00
2023-05-15T19:55:03.701Z,101113.78
2023-05-15T19:59:06.477Z,101119.28
2023-05-15T20:03:09.501Z,101124.72
2023-05-15T20:07:12.860Z,101132.56
2023-05-15T20:11:17.558Z,101137.53
2023-05-15T20:15:20.460Z,101156.75
2023-05-15T20:19:24.729Z,101147.25
2023-05-15T20:23:27.919Z,101153.53
2023-05-15T20:27:32.125Z,101153.91
2023-05-15T20:31:34.953Z,101152.16
2023-05-15T20:35:38.748Z,101154.84
2023-05-15T20:39:41.491Z,101167.06
2023-05-15T20:43:45.622Z,101171.06
2023-05-15T20:47:49.475Z,101165.59
2023-05-15T20:51:52.466Z,101179.50
2023-05-15T20:55:55.350Z,101189.50
2023-05-15T20:59:59.556Z,101192.81
2023-05-15T21:04:02.437Z,101191.84
2023-05-15T21:08:05.649Z,101187.03
2023-05-15T21:12:08.939Z,101198.97
2023-05-15T21:16:13.033Z,101198.03
2023-05-15T21:20:15.892Z,101199.56
2023-05-15T21:24:18.887Z,101216.09
2023-05-15T21:28:21.729Z,101217.88
2023-05-15T21:32:25.866Z,101220.97
2023-05-15T21:36:28.606Z,101224.56
2023-05-15T21:40:31.271Z,101222.13
2023-05-15T21:44:34.004Z,101223.81
2023-05-15T21:48:38.059Z,101221.47
2023-05-15T21:52:40.942Z,101231.69
2023-05-15T21:56:43.721Z,101232.69
2023-05-15T22:00:46.528Z,101234.00
2023-05-15T22:04:50.704Z,101234.38
2023-05-15T22:08:53.590Z,101225.84
2023-05-15T22:12:59.011Z,101230.47
2023-05-15T22:17:02.138Z,101235.44
2023-05-15T22:21:08.569Z,101240.44
2023-05-15T22:25:11.768Z,101230.59
2023-05-15T22:29:14.532Z,101242.56
2023-05-15T22:33:17.297Z,101248.34
2023-05-15T22:37:21.850Z,101252.22
2023-05-15T22:41:24.728Z,101259.72
2023-05-15T22:45:27.481Z,101265.59
2023-05-15T22:49:30.480Z,101267.06
2023-05-15T22:53:37.068Z,101261.34
2023-05-15T22:57:40.570Z,101279.09
2023-05-15T23:01:43.838Z,101279.91
2023-05-15T23:05:46.761Z,101287.81
2023-05-15T23:09:50.936Z,101291.84
2023-05-15T23:13:53.675Z,101291.72
2023-05-15T23:17:56.672Z,101298.34
2023-05-15T23:21:59.402Z,101300.41
2023-05-15T23:26:03.501Z,101301.94
2023-05-15T23:30:07.374Z,101314.44
2023-05-15T23:34:10.153Z,101316.28
2023-05-15T23:38:12.982Z,101327.63
2023-05-15T23:42:17.088Z,101332.09
2023-05-15T23:46:19.914Z,101324.75
2023-05-15T23:50:23.086Z,101321.50
2023-05-15T23:54:25.960Z,101320.81
2023-05-15T23:58:30.006Z,101327.41
